Great Fortune — VRNO5 — position and weather

sailwx.info

Track history (hours):
 
Tides and Currents Weather Stations Pressure Air Temp Water Temp Dewpoint Dewpoint Depression Visibility Wind Speed Wind Dir Waves Ship Positions

Great Fortune

Last reported at 2018-Jun-18 16:06 UTC. Time now 2018-Jun-20 03:27 UTC.
Position N 37°58' E 120°55'.

Length 200 m; draft 7 m.

Type: Cargo ship. MMSI: 477948900.

Date/timePositionNaut miles runAvg speedWind from/ knotsBaromVisibWave heightAir tempDewpointWater temp
2018-Jun-18 16:06N 37°58' E 120°55'215.0
2018-Jun-18 15:59N 37°59' E 120°53'715.0
2018-Jun-18 15:30N 38°00' E 120°44'714.5
2018-Jun-18 15:00N 38°02' E 120°36'714.6
2018-Jun-18 14:30N 38°03' E 120°26'714.2
2018-Jun-18 14:00N 37°59' E 120°18'20 6.9
2018-Jun-18 11:05N 37°39' E 120°18'0 0.0
2018-Jun-18 10:53N 37°39' E 120°18'0 0.0
2018-Jun-18 10:23N 37°39' E 120°18'0 0.0
2018-Jun-18 06:20N 37°39' E 120°18'0 0.0
2018-Jun-18 05:59N 37°39' E 120°18'0 0.0
2018-Jun-18 05:17N 37°39' E 120°18'0 0.0
2018-Jun-18 04:53N 37°39' E 120°18'0 0.0
2018-Jun-18 04:23N 37°39' E 120°18'0 0.0
2018-Jun-18 03:53N 37°39' E 120°18'0 0.0
2018-Jun-18 03:23N 37°39' E 120°18'0 0.0
2018-Jun-18 01:35N 37°39' E 120°18'0 0.0
2018-Jun-17 15:23N 37°39' E 120°18'0 0.0
2018-Jun-17 14:23N 37°39' E 120°18'0 0.0
2018-Jun-17 07:29N 37°39' E 120°18'0 0.0
2018-Jun-17 00:34N 37°39' E 120°18'0 0.0
2018-Jun-16 22:46N 37°39' E 120°18'0 0.0
2018-Jun-16 22:14N 37°39' E 120°18'0 0.0
2018-Jun-16 21:55N 37°39' E 120°18'0 0.0
2018-Jun-16 21:10N 37°39' E 120°18'0 0.0
2018-Jun-16 19:16N 37°39' E 120°18'0 0.0
2018-Jun-16 17:28N 37°39' E 120°18'0 0.0
2018-Jun-16 16:58N 37°39' E 120°18'0 0.0
2018-Jun-16 16:28N 37°39' E 120°18'0 0.0
2018-Jun-16 15:22N 37°39' E 120°18'0 0.0
2018-Jun-16 11:52N 37°39' E 120°18'0 0.0
2018-Jun-16 11:28N 37°39' E 120°18'0 0.0
2018-Jun-16 00:51N 37°39' E 120°18'2 2.8
2018-Jun-15 23:57N 37°38' E 120°15'11 0.4
2018-Jun-14 16:00N 37°48' E 120°08'14 1.5
2018-Jun-14 06:36N 37°59' E 120°19'111.5
2018-Jun-14 06:30N 38°00' E 120°20'611.5
2018-Jun-14 05:59N 38°03' E 120°27'612.0
2018-Jun-14 05:29N 38°03' E 120°34'713.4
2018-Jun-14 05:00N 38°02' E 120°42'713.4
2018-Jun-14 04:30N 38°00' E 120°51'613.1
2018-Jun-14 04:00N 37°59' E 120°59'  
Track history (hours):
 
Tides and Currents Weather Stations Pressure Air Temp Water Temp Dewpoint Dewpoint Depression Visibility Wind Speed Wind Dir Waves Ship Positions

Great Fortune

Last reported at 2018-Jun-18 16:06 UTC. Time now 2018-Jun-20 03:27 UTC.
Position N 37°58' E 120°55'.

Length 200 m; draft 7 m.

Type: Cargo ship. MMSI: 477948900.

Date/timePositionNaut miles runAvg speedWind from/ knotsBaromVisibWave heightAir tempDewpointWater temp
2018-Jun-18 16:06N 37°58' E 120°55'215.0
2018-Jun-18 15:59N 37°59' E 120°53'715.0
2018-Jun-18 15:30N 38°00' E 120°44'714.5
2018-Jun-18 15:00N 38°02' E 120°36'714.6
2018-Jun-18 14:30N 38°03' E 120°26'714.2
2018-Jun-18 14:00N 37°59' E 120°18'20 6.9
2018-Jun-18 11:05N 37°39' E 120°18'0 0.0
2018-Jun-18 10:53N 37°39' E 120°18'0 0.0
2018-Jun-18 10:23N 37°39' E 120°18'0 0.0
2018-Jun-18 06:20N 37°39' E 120°18'0 0.0
2018-Jun-18 05:59N 37°39' E 120°18'0 0.0
2018-Jun-18 05:17N 37°39' E 120°18'0 0.0
2018-Jun-18 04:53N 37°39' E 120°18'0 0.0
2018-Jun-18 04:23N 37°39' E 120°18'0 0.0
2018-Jun-18 03:53N 37°39' E 120°18'0 0.0
2018-Jun-18 03:23N 37°39' E 120°18'0 0.0
2018-Jun-18 01:35N 37°39' E 120°18'0 0.0
2018-Jun-17 15:23N 37°39' E 120°18'0 0.0
2018-Jun-17 14:23N 37°39' E 120°18'0 0.0
2018-Jun-17 07:29N 37°39' E 120°18'0 0.0
2018-Jun-17 00:34N 37°39' E 120°18'0 0.0
2018-Jun-16 22:46N 37°39' E 120°18'0 0.0
2018-Jun-16 22:14N 37°39' E 120°18'0 0.0
2018-Jun-16 21:55N 37°39' E 120°18'0 0.0
2018-Jun-16 21:10N 37°39' E 120°18'0 0.0
2018-Jun-16 19:16N 37°39' E 120°18'0 0.0
2018-Jun-16 17:28N 37°39' E 120°18'0 0.0
2018-Jun-16 16:58N 37°39' E 120°18'0 0.0
2018-Jun-16 16:28N 37°39' E 120°18'0 0.0
2018-Jun-16 15:22N 37°39' E 120°18'0 0.0
2018-Jun-16 11:52N 37°39' E 120°18'0 0.0
2018-Jun-16 11:28N 37°39' E 120°18'0 0.0
2018-Jun-16 00:51N 37°39' E 120°18'2 2.8
2018-Jun-15 23:57N 37°38' E 120°15'11 0.4
2018-Jun-14 16:00N 37°48' E 120°08'14 1.5
2018-Jun-14 06:36N 37°59' E 120°19'111.5
2018-Jun-14 06:30N 38°00' E 120°20'611.5
2018-Jun-14 05:59N 38°03' E 120°27'612.0
2018-Jun-14 05:29N 38°03' E 120°34'713.4
2018-Jun-14 05:00N 38°02' E 120°42'713.4
2018-Jun-14 04:30N 38°00' E 120°51'613.1
2018-Jun-14 04:00N 37°59' E 120°59'  

Dump ship's entire track history